sensor_id;sensor_type;location;lat;lon;timestamp;pressure;altitude;pressure_sealevel;temperature;humidity
6829;BME280;17930;48.592;8.868;2023-03-16T00:02:13;97118.16;;;-0.75;100.00
6829;BME280;17930;48.592;8.868;2023-03-16T00:04:40;97109.09;;;-0.78;100.00
6829;BME280;17930;48.592;8.868;2023-03-16T00:07:09;97113.44;;;-0.78;100.00
6829;BME280;17930;48.592;8.868;2023-03-16T00:09:37;97123.22;;;-0.95;100.00
6829;BME280;17930;48.592;8.868;2023-03-16T00:12:07;97122.63;;;-0.97;100.00
6829;BME280;17930;48.592;8.868;2023-03-16T00:14:45;97119.09;;;-0.96;100.00
6829;BME280;17930;48.592;8.868;2023-03-16T00:17:16;97123.31;;;-0.69;100.00
6829;BME280;17930;48.592;8.868;2023-03-16T00:19:45;97115.91;;;-0.38;100.00
6829;BME280;17930;48.592;8.868;2023-03-16T00:22:13;97118.66;;;-0.33;100.00
6829;BME280;17930;48.592;8.868;2023-03-16T00:24:41;97108.78;;;-0.43;100.00
6829;BME280;17930;48.592;8.868;2023-03-16T00:27:09;97121.41;;;-0.35;100.00
6829;BME280;17930;48.592;8.868;2023-03-16T00:29:40;97117.09;;;-0.28;100.00
6829;BME280;17930;48.592;8.868;2023-03-16T00:32:14;97115.91;;;-0.32;100.00
6829;BME280;17930;48.592;8.868;2023-03-16T00:34:42;97120.44;;;-0.34;100.00
6829;BME280;17930;48.592;8.868;2023-03-16T00:37:09;97116.09;;;-0.33;100.00
6829;BME280;17930;48.592;8.868;2023-03-16T00:39:38;97119.84;;;-0.42;100.00
6829;BME280;17930;48.592;8.868;2023-03-16T00:42:06;97117.88;;;-0.47;100.00
6829;BME280;17930;48.592;8.868;2023-03-16T00:44:34;97117.03;;;-0.60;100.00
6829;BME280;17930;48.592;8.868;2023-03-16T00:47:00;97105.97;;;-0.67;100.00
6829;BME280;17930;48.592;8.868;2023-03-16T00:49:28;97104.09;;;-0.39;100.00
6829;BME280;17930;48.592;8.868;2023-03-16T00:51:59;97116.66;;;-0.44;100.00
6829;BME280;17930;48.592;8.868;2023-03-16T00:54:26;97103.28;;;-0.46;100.00
6829;BME280;17930;48.592;8.868;2023-03-16T00:56:53;97107.59;;;-0.53;100.00
6829;BME280;17930;48.592;8.868;2023-03-16T00:59:19;97116.47;;;-0.49;100.00
6829;BME280;17930;48.592;8.868;2023-03-16T01:01:47;97107.22;;;-0.50;100.00
6829;BME280;17930;48.592;8.868;2023-03-16T01:04:13;97110.19;;;-0.40;100.00
6829;BME280;17930;48.592;8.868;2023-03-16T01:06:47;97102.31;;;-0.45;100.00
6829;BME280;17930;48.592;8.868;2023-03-16T01:09:18;97098.53;;;-0.62;100.00
6829;BME280;17930;48.592;8.868;2023-03-16T01:11:47;97097.31;;;-0.66;100.00
6829;BME280;17930;48.592;8.868;2023-03-16T01:14:18;97105.00;;;-0.66;100.00
6829;BME280;17930;48.592;8.868;2023-03-16T01:16:47;97102.81;;;-0.75;100.00
6829;BME280;17930;48.592;8.868;2023-03-16T01:19:14;97098.78;;;-1.03;100.00
6829;BME280;17930;48.592;8.868;2023-03-16T01:21:42;97112.56;;;-0.98;100.00
6829;BME280;17930;48.592;8.868;2023-03-16T01:24:09;97118.91;;;-0.88;100.00
6829;BME280;17930;48.592;8.868;2023-03-16T01:26:36;97122.38;;;-1.08;100.00
6829;BME280;17930;48.592;8.868;2023-03-16T01:29:02;97118.38;;;-1.23;100.00
6829;BME280;17930;48.592;8.868;2023-03-16T01:31:31;97124.41;;;-0.91;100.00
6829;BME280;17930;48.592;8.868;2023-03-16T01:33:58;97120.78;;;-1.15;100.00
6829;BME280;17930;48.592;8.868;2023-03-16T01:36:25;97117.16;;;-1.27;100.00
6829;BME280;17930;48.592;8.868;2023-03-16T01:41:27;97112.47;;;-0.77;100.00
6829;BME280;17930;48.592;8.868;2023-03-16T01:43:54;97110.22;;;-1.00;100.00
6829;BME280;17930;48.592;8.868;2023-03-16T01:46:24;97108.94;;;-1.23;100.00
6829;BME280;17930;48.592;8.868;2023-03-16T01:48:56;97107.69;;;-1.33;100.00
6829;BME280;17930;48.592;8.868;2023-03-16T01:51:27;97108.97;;;-1.50;100.00
6829;BME280;17930;48.592;8.868;2023-03-16T01:53:57;97105.97;;;-1.60;100.00
6829;BME280;17930;48.592;8.868;2023-03-16T01:56:28;97097.50;;;-1.60;100.00
6829;BME280;17930;48.592;8.868;2023-03-16T01:59:00;97104.81;;;-1.57;100.00
6829;BME280;17930;48.592;8.868;2023-03-16T02:01:28;97102.06;;;-1.56;100.00
6829;BME280;17930;48.592;8.868;2023-03-16T02:04:01;97100.22;;;-1.68;100.00
6829;BME280;17930;48.592;8.868;2023-03-16T02:06:30;97100.47;;;-1.57;100.00
6829;BME280;17930;48.592;8.868;2023-03-16T02:08:57;97098.97;;;-1.45;100.00
6829;BME280;17930;48.592;8.868;2023-03-16T02:11:25;97091.06;;;-1.50;100.00
6829;BME280;17930;48.592;8.868;2023-03-16T02:13:53;97086.50;;;-1.61;100.00
6829;BME280;17930;48.592;8.868;2023-03-16T02:16:23;97081.69;;;-1.43;100.00
6829;BME280;17930;48.592;8.868;2023-03-16T02:18:50;97076.75;;;-1.45;100.00
6829;BME280;17930;48.592;8.868;2023-03-16T02:21:22;97083.84;;;-1.00;100.00
6829;BME280;17930;48.592;8.868;2023-03-16T02:23:52;97063.47;;;-0.61;100.00
6829;BME280;17930;48.592;8.868;2023-03-16T02:26:25;97062.72;;;-0.36;100.00
6829;BME280;17930;48.592;8.868;2023-03-16T02:29:09;97072.56;;;-0.46;100.00
6829;BME280;17930;48.592;8.868;2023-03-16T02:31:39;97076.06;;;-0.66;100.00
6829;BME280;17930;48.592;8.868;2023-03-16T02:34:06;97073.25;;;-0.78;100.00
6829;BME280;17930;48.592;8.868;2023-03-16T02:36:35;97091.38;;;-0.86;100.00
6829;BME280;17930;48.592;8.868;2023-03-16T02:39:03;97089.44;;;-0.77;100.00
6829;BME280;17930;48.592;8.868;2023-03-16T02:41:30;97082.94;;;-0.73;100.00
6829;BME280;17930;48.592;8.868;2023-03-16T02:44:00;97083.91;;;-0.74;100.00
6829;BME280;17930;48.592;8.868;2023-03-16T02:46:30;97088.06;;;-0.67;100.00
6829;BME280;17930;48.592;8.868;2023-03-16T02:49:04;97089.09;;;-0.55;100.00
6829;BME280;17930;48.592;8.868;2023-03-16T02:51:33;97077.09;;;-0.35;100.00
6829;BME280;17930;48.592;8.868;2023-03-16T02:54:00;97067.84;;;-0.23;100.00
6829;BME280;17930;48.592;8.868;2023-03-16T02:56:26;97065.84;;;-0.34;100.00
6829;BME280;17930;48.592;8.868;2023-03-16T02:58:53;97057.00;;;-0.32;100.00
6829;BME280;17930;48.592;8.868;2023-03-16T03:01:21;97058.56;;;-0.11;100.00
6829;BME280;17930;48.592;8.868;2023-03-16T03:03:48;97057.59;;;0.09;100.00
6829;BME280;17930;48.592;8.868;2023-03-16T03:06:16;97047.31;;;0.15;100.00
6829;BME280;17930;48.592;8.868;2023-03-16T03:08:42;97048.88;;;0.16;100.00
6829;BME280;17930;48.592;8.868;2023-03-16T03:11:09;97045.75;;;0.14;100.00
6829;BME280;17930;48.592;8.868;2023-03-16T03:13:36;97043.38;;;0.06;100.00
6829;BME280;17930;48.592;8.868;2023-03-16T03:16:03;97042.22;;;-0.04;100.00
6829;BME280;17930;48.592;8.868;2023-03-16T03:18:30;97038.25;;;-0.13;100.00
6829;BME280;17930;48.592;8.868;2023-03-16T03:20:59;97033.53;;;-0.16;100.00
6829;BME280;17930;48.592;8.868;2023-03-16T03:23:26;97033.94;;;-0.12;100.00
6829;BME280;17930;48.592;8.868;2023-03-16T03:25:56;97038.28;;;-0.19;100.00
6829;BME280;17930;48.592;8.868;2023-03-16T03:28:23;97043.00;;;-0.29;100.00
6829;BME280;17930;48.592;8.868;2023-03-16T03:30:50;97039.47;;;-0.28;100.00
6829;BME280;17930;48.592;8.868;2023-03-16T03:33:17;97043.19;;;0.08;100.00
6829;BME280;17930;48.592;8.868;2023-03-16T03:35:44;97035.72;;;-0.06;100.00
6829;BME280;17930;48.592;8.868;2023-03-16T03:38:10;97042.59;;;-0.01;100.00
6829;BME280;17930;48.592;8.868;2023-03-16T03:40:38;97048.72;;;-0.21;100.00
6829;BME280;17930;48.592;8.868;2023-03-16T03:43:05;97040.25;;;-0.21;100.00
6829;BME280;17930;48.592;8.868;2023-03-16T03:45:31;97033.94;;;-0.12;100.00
6829;BME280;17930;48.592;8.868;2023-03-16T03:47:58;97036.06;;;0.16;100.00
6829;BME280;17930;48.592;8.868;2023-03-16T03:50:24;97030.59;;;0.00;100.00
6829;BME280;17930;48.592;8.868;2023-03-16T03:52:51;97035.13;;;-0.21;100.00
6829;BME280;17930;48.592;8.868;2023-03-16T03:55:18;97031.78;;;-0.28;100.00
6829;BME280;17930;48.592;8.868;2023-03-16T03:57:46;97025.47;;;-0.32;100.00
6829;BME280;17930;48.592;8.868;2023-03-16T04:00:13;97027.66;;;-0.29;100.00
6829;BME280;17930;48.592;8.868;2023-03-16T04:02:39;97029.00;;;-0.20;100.00
6829;BME280;17930;48.592;8.868;2023-03-16T04:05:07;97026.44;;;-0.20;100.00
6829;BME280;17930;48.592;8.868;2023-03-16T04:07:33;97030.38;;;-0.24;100.00
6829;BME280;17930;48.592;8.868;2023-03-16T04:10:00;97031.56;;;-0.20;100.00
6829;BME280;17930;48.592;8.868;2023-03-16T04:12:27;97025.25;;;-0.24;100.00
6829;BME280;17930;48.592;8.868;2023-03-16T04:14:55;97025.66;;;-0.40;100.00
6829;BME280;17930;48.592;8.868;2023-03-16T04:17:21;97019.56;;;-0.58;100.00
6829;BME280;17930;48.592;8.868;2023-03-16T04:19:48;97026.84;;;-0.62;100.00
6829;BME280;17930;48.592;8.868;2023-03-16T04:22:15;97017.78;;;-0.58;100.00
6829;BME280;17930;48.592;8.868;2023-03-16T04:24:41;97022.91;;;-0.32;100.00
6829;BME280;17930;48.592;8.868;2023-03-16T04:27:09;97017.38;;;-0.16;100.00
6829;BME280;17930;48.592;8.868;2023-03-16T04:29:36;97015.44;;;-0.34;100.00
6829;BME280;17930;48.592;8.868;2023-03-16T04:32:04;97010.31;;;-0.40;100.00
6829;BME280;17930;48.592;8.868;2023-03-16T04:34:31;97004.78;;;-0.50;100.00
6829;BME280;17930;48.592;8.868;2023-03-16T04:36:58;97007.94;;;-0.54;100.00
6829;BME280;17930;48.592;8.868;2023-03-16T04:39:26;97013.47;;;-0.45;100.00
6829;BME280;17930;48.592;8.868;2023-03-16T04:41:53;97013.66;;;-0.20;100.00
6829;BME280;17930;48.592;8.868;2023-03-16T04:44:19;97013.88;;;-0.28;100.00
6829;BME280;17930;48.592;8.868;2023-03-16T04:46:46;97018.59;;;-0.25;100.00
6829;BME280;17930;48.592;8.868;2023-03-16T04:49:14;97015.63;;;-0.35;100.00
6829;BME280;17930;48.592;8.868;2023-03-16T04:51:40;97010.69;;;-0.43;100.00
6829;BME280;17930;48.592;8.868;2023-03-16T04:54:07;97008.31;;;-0.12;100.00
6829;BME280;17930;48.592;8.868;2023-03-16T04:56:34;97012.25;;;-0.16;100.00
6829;BME280;17930;48.592;8.868;2023-03-16T04:59:00;97003.22;;;-0.45;100.00
6829;BME280;17930;48.592;8.868;2023-03-16T05:01:27;97000.25;;;-0.54;100.00
6829;BME280;17930;48.592;8.868;2023-03-16T05:03:54;97002.81;;;-0.22;100.00
6829;BME280;17930;48.592;8.868;2023-03-16T05:06:21;97005.56;;;-0.11;100.00
6829;BME280;17930;48.592;8.868;2023-03-16T05:08:48;97000.25;;;-0.29;100.00
6829;BME280;17930;48.592;8.868;2023-03-16T05:11:15;96997.50;;;-0.53;100.00
6829;BME280;17930;48.592;8.868;2023-03-16T05:13:41;97001.03;;;-0.54;100.00
6829;BME280;17930;48.592;8.868;2023-03-16T05:16:08;97002.81;;;-0.29;100.00
6829;BME280;17930;48.592;8.868;2023-03-16T05:18:34;97005.19;;;-0.34;100.00
6829;BME280;17930;48.592;8.868;2023-03-16T05:21:01;97001.25;;;-0.49;100.00
6829;BME280;17930;48.592;8.868;2023-03-16T05:23:29;97000.84;;;-0.33;100.00
6829;BME280;17930;48.592;8.868;2023-03-16T05:25:55;96999.63;;;-0.11;100.00
6829;BME280;17930;48.592;8.868;2023-03-16T05:28:25;97005.56;;;-0.11;100.00
6829;BME280;17930;48.592;8.868;2023-03-16T05:30:52;97011.88;;;-0.13;100.00
6829;BME280;17930;48.592;8.868;2023-03-16T05:33:19;97001.41;;;-0.05;100.00
6829;BME280;17930;48.592;8.868;2023-03-16T05:35:46;97002.41;;;-0.19;100.00
6829;BME280;17930;48.592;8.868;2023-03-16T05:38:12;97001.06;;;-0.28;100.00
6829;BME280;17930;48.592;8.868;2023-03-16T05:40:41;97006.38;;;-0.36;100.00
6829;BME280;17930;48.592;8.868;2023-03-16T05:43:08;97005.56;;;-0.30;100.00
6829;BME280;17930;48.592;8.868;2023-03-16T05:45:34;96999.88;;;-0.45;100.00
6829;BME280;17930;48.592;8.868;2023-03-16T05:48:01;96993.38;;;-0.35;100.00
6829;BME280;17930;48.592;8.868;2023-03-16T05:50:29;97002.41;;;-0.26;100.00
6829;BME280;17930;48.592;8.868;2023-03-16T05:52:56;96998.88;;;-0.44;100.00
6829;BME280;17930;48.592;8.868;2023-03-16T05:55:23;97000.25;;;-0.42;100.00
6829;BME280;17930;48.592;8.868;2023-03-16T05:57:51;96998.47;;;-0.41;100.00
6829;BME280;17930;48.592;8.868;2023-03-16T06:00:18;97000.47;;;-0.43;100.00
6829;BME280;17930;48.592;8.868;2023-03-16T06:02:47;96987.84;;;-0.38;100.00
6829;BME280;17930;48.592;8.868;2023-03-16T06:05:14;96992.97;;;-0.38;100.00
6829;BME280;17930;48.592;8.868;2023-03-16T06:07:41;96992.78;;;-0.43;100.00
6829;BME280;17930;48.592;8.868;2023-03-16T06:10:09;96983.72;;;-0.52;100.00
6829;BME280;17930;48.592;8.868;2023-03-16T06:12:37;96987.44;;;-0.48;100.00
6829;BME280;17930;48.592;8.868;2023-03-16T06:15:07;96988.44;;;-0.68;100.00
6829;BME280;17930;48.592;8.868;2023-03-16T06:17:35;96996.72;;;-0.66;100.00
6829;BME280;17930;48.592;8.868;2023-03-16T06:20:03;96992.97;;;-0.64;100.00
6829;BME280;17930;48.592;8.868;2023-03-16T06:22:34;96996.50;;;-0.71;100.00
6829;BME280;17930;48.592;8.868;2023-03-16T06:25:01;96993.75;;;-0.76;100.00
6829;BME280;17930;48.592;8.868;2023-03-16T06:27:27;96998.09;;;-0.38;100.00
6829;BME280;17930;48.592;8.868;2023-03-16T06:29:55;96992.19;;;-0.32;100.00
6829;BME280;17930;48.592;8.868;2023-03-16T06:32:22;97001.22;;;-0.23;100.00
6829;BME280;17930;48.592;8.868;2023-03-16T06:34:49;97002.44;;;-0.32;100.00
6829;BME280;17930;48.592;8.868;2023-03-16T06:37:16;96996.09;;;-0.23;100.00
6829;BME280;17930;48.592;8.868;2023-03-16T06:39:43;97004.75;;;0.01;100.00
6829;BME280;17930;48.592;8.868;2023-03-16T06:42:10;97005.50;;;0.21;100.00
6829;BME280;17930;48.592;8.868;2023-03-16T06:44:37;97002.94;;;0.15;100.00
6829;BME280;17930;48.592;8.868;2023-03-16T06:47:03;97000.16;;;0.29;100.00
6829;BME280;17930;48.592;8.868;2023-03-16T06:49:31;97001.47;;;0.51;100.00
6829;BME280;17930;48.592;8.868;2023-03-16T06:51:58;97004.22;;;0.56;100.00
6829;BME280;17930;48.592;8.868;2023-03-16T06:54:26;97011.13;;;0.49;100.00
6829;BME280;17930;48.592;8.868;2023-03-16T06:57:00;96998.16;;;0.38;100.00
6829;BME280;17930;48.592;8.868;2023-03-16T06:59:27;97009.69;;;0.66;100.00
6829;BME280;17930;48.592;8.868;2023-03-16T07:01:54;97011.31;;;0.54;100.00
6829;BME280;17930;48.592;8.868;2023-03-16T07:04:21;97009.44;;;0.30;100.00
6829;BME280;17930;48.592;8.868;2023-03-16T07:06:49;97007.06;;;0.22;100.00
6829;BME280;17930;48.592;8.868;2023-03-16T07:09:15;97016.31;;;0.43;100.00
6829;BME280;17930;48.592;8.868;2023-03-16T07:11:42;97008.88;;;0.72;100.00
6829;BME280;17930;48.592;8.868;2023-03-16T07:14:09;97008.34;;;1.01;100.00
6829;BME280;17930;48.592;8.868;2023-03-16T07:16:36;97011.06;;;1.05;100.00
6829;BME280;17930;48.592;8.868;2023-03-16T07:19:02;97005.88;;;1.18;100.00
6829;BME280;17930;48.592;8.868;2023-03-16T07:21:29;96995.50;;;1.31;100.00
6829;BME280;17930;48.592;8.868;2023-03-16T07:24:05;96998.78;;;1.14;100.00
6829;BME280;17930;48.592;8.868;2023-03-16T07:26:32;96999.25;;;1.35;100.00
6829;BME280;17930;48.592;8.868;2023-03-16T07:28:58;97000.06;;;1.60;100.00
6829;BME280;17930;48.592;8.868;2023-03-16T07:31:25;96993.22;;;1.72;100.00
6829;BME280;17930;48.592;8.868;2023-03-16T07:33:52;97002.53;;;1.91;100.00
6829;BME280;17930;48.592;8.868;2023-03-16T07:36:19;97004.88;;;1.50;100.00
6829;BME280;17930;48.592;8.868;2023-03-16T07:38:45;97009.69;;;1.89;100.00
6829;BME280;17930;48.592;8.868;2023-03-16T07:41:13;97007.47;;;2.34;100.00
6829;BME280;17930;48.592;8.868;2023-03-16T07:43:40;97003.47;;;2.56;100.00
6829;BME280;17930;48.592;8.868;2023-03-16T07:46:06;96999.31;;;2.19;100.00
6829;BME280;17930;48.592;8.868;2023-03-16T07:48:33;97004.34;;;2.50;100.00
6829;BME280;17930;48.592;8.868;2023-03-16T07:50:59;97004.72;;;3.12;100.00
6829;BME280;17930;48.592;8.868;2023-03-16T07:53:26;96999.63;;;2.94;100.00
6829;BME280;17930;48.592;8.868;2023-03-16T07:55:53;96997.31;;;3.04;100.00
6829;BME280;17930;48.592;8.868;2023-03-16T07:58:21;96980.28;;;3.32;100.00
6829;BME280;17930;48.592;8.868;2023-03-16T08:00:47;96986.31;;;3.26;100.00
6829;BME280;17930;48.592;8.868;2023-03-16T08:03:14;96992.66;;;3.12;100.00
6829;BME280;17930;48.592;8.868;2023-03-16T08:05:41;96987.00;;;3.33;100.00
6829;BME280;17930;48.592;8.868;2023-03-16T08:08:07;96987.81;;;3.45;100.00
6829;BME280;17930;48.592;8.868;2023-03-16T08:10:34;97001.09;;;3.19;100.00
6829;BME280;17930;48.592;8.868;2023-03-16T08:13:02;97003.78;;;3.24;100.00
6829;BME280;17930;48.592;8.868;2023-03-16T08:15:30;97007.03;;;3.31;100.00
6829;BME280;17930;48.592;8.868;2023-03-16T08:17:58;97011.66;;;3.29;100.00
6829;BME280;17930;48.592;8.868;2023-03-16T08:20:26;96994.44;;;3.64;100.00
6829;BME280;17930;48.592;8.868;2023-03-16T08:22:53;96997.72;;;4.16;100.00
6829;BME280;17930;48.592;8.868;2023-03-16T08:25:20;96993.19;;;4.97;100.00
6829;BME280;17930;48.592;8.868;2023-03-16T08:27:47;96992.81;;;5.32;100.00
6829;BME280;17930;48.592;8.868;2023-03-16T08:30:15;96993.13;;;4.92;100.00
6829;BME280;17930;48.592;8.868;2023-03-16T08:32:43;96984.56;;;5.96;100.00
6829;BME280;17930;48.592;8.868;2023-03-16T08:35:12;96980.53;;;6.59;100.00
6829;BME280;17930;48.592;8.868;2023-03-16T08:37:39;96983.59;;;6.34;100.00
6829;BME280;17930;48.592;8.868;2023-03-16T08:40:07;96968.06;;;7.56;100.00
6829;BME280;17930;48.592;8.868;2023-03-16T08:42:37;96965.06;;;8.41;100.00
6829;BME280;17930;48.592;8.868;2023-03-16T08:45:05;96963.72;;;8.89;100.00
6829;BME280;17930;48.592;8.868;2023-03-16T08:47:34;96958.34;;;9.30;100.00
6829;BME280;17930;48.592;8.868;2023-03-16T08:50:03;96962.53;;;10.35;100.00
6829;BME280;17930;48.592;8.868;2023-03-16T08:52:30;96956.56;;;10.15;100.00
6829;BME280;17930;48.592;8.868;2023-03-16T08:54:58;96957.22;;;10.65;100.00
6829;BME280;17930;48.592;8.868;2023-03-16T08:57:25;96956.13;;;11.29;100.00
6829;BME280;17930;48.592;8.868;2023-03-16T08:59:52;96964.47;;;10.73;100.00
6829;BME280;17930;48.592;8.868;2023-03-16T09:02:21;96961.13;;;11.21;100.00
6829;BME280;17930;48.592;8.868;2023-03-16T09:04:49;96957.00;;;11.15;100.00
6829;BME280;17930;48.592;8.868;2023-03-16T09:07:17;96942.22;;;12.05;100.00
6829;BME280;17930;48.592;8.868;2023-03-16T09:09:44;96937.03;;;12.51;100.00
6829;BME280;17930;48.592;8.868;2023-03-16T09:12:11;96931.22;;;13.37;100.00
6829;BME280;17930;48.592;8.868;2023-03-16T09:14:38;96935.91;;;12.80;100.00
6829;BME280;17930;48.592;8.868;2023-03-16T09:17:06;96926.63;;;13.66;100.00
6829;BME280;17930;48.592;8.868;2023-03-16T09:19:33;96922.84;;;14.62;100.00
6829;BME280;17930;48.592;8.868;2023-03-16T09:21:59;96935.66;;;14.77;100.00
6829;BME280;17930;48.592;8.868;2023-03-16T09:24:28;96946.84;;;14.96;100.00
6829;BME280;17930;48.592;8.868;2023-03-16T09:26:54;96946.63;;;15.06;97.37
6829;BME280;17930;48.592;8.868;2023-03-16T09:29:21;96942.63;;;15.22;87.34
6829;BME280;17930;48.592;8.868;2023-03-16T09:31:48;96948.31;;;13.17;88.63
6829;BME280;17930;48.592;8.868;2023-03-16T09:34:15;96944.91;;;13.34;95.16
6829;BME280;17930;48.592;8.868;2023-03-16T09:36:42;96943.88;;;14.31;95.79
6829;BME280;17930;48.592;8.868;2023-03-16T09:39:10;96933.69;;;14.96;90.73
6829;BME280;17930;48.592;8.868;2023-03-16T09:41:45;96924.72;;;14.97;90.07
6829;BME280;17930;48.592;8.868;2023-03-16T09:44:23;96916.53;;;15.25;87.08
6829;BME280;17930;48.592;8.868;2023-03-16T09:46:55;96902.50;;;15.95;81.85
6829;BME280;17930;48.592;8.868;2023-03-16T09:49:27;96895.81;;;16.49;79.68
6829;BME280;17930;48.592;8.868;2023-03-16T09:52:05;96895.47;;;16.12;73.42
6829;BME280;17930;48.592;8.868;2023-03-16T09:54:41;96905.50;;;15.80;72.95
6829;BME280;17930;48.592;8.868;2023-03-16T09:57:18;96910.75;;;14.88;76.29
6829;BME280;17930;48.592;8.868;2023-03-16T09:59:48;96918.16;;;14.59;80.60
6829;BME280;17930;48.592;8.868;2023-03-16T10:02:42;96899.75;;;13.24;84.03
6829;BME280;17930;48.592;8.868;2023-03-16T10:05:12;96906.88;;;14.59;85.36
6829;BME280;17930;48.592;8.868;2023-03-16T10:07:45;96908.72;;;13.86;83.20
6829;BME280;17930;48.592;8.868;2023-03-16T10:10:23;96908.81;;;14.53;80.96
6829;BME280;17930;48.592;8.868;2023-03-16T10:12:57;96891.00;;;15.61;77.10
6829;BME280;17930;48.592;8.868;2023-03-16T10:15:28;96891.63;;;15.66;76.01
6829;BME280;17930;48.592;8.868;2023-03-16T10:17:59;96886.59;;;16.00;73.97
6829;BME280;17930;48.592;8.868;2023-03-16T10:20:30;96880.50;;;16.51;71.63
6829;BME280;17930;48.592;8.868;2023-03-16T10:23:00;96875.44;;;16.80;66.37
6829;BME280;17930;48.592;8.868;2023-03-16T10:25:38;96870.56;;;17.54;64.71
6829;BME280;17930;48.592;8.868;2023-03-16T10:28:13;96879.00;;;16.76;63.95
6829;BME280;17930;48.592;8.868;2023-03-16T10:30:41;96878.09;;;16.80;65.78
6829;BME280;17930;48.592;8.868;2023-03-16T10:33:16;96876.41;;;17.85;64.82
6829;BME280;17930;48.592;8.868;2023-03-16T10:35:46;96875.75;;;17.88;61.05
6829;BME280;17930;48.592;8.868;2023-03-16T10:38:27;96871.16;;;17.60;61.36
6829;BME280;17930;48.592;8.868;2023-03-16T10:40:55;96856.88;;;17.69;63.16
6829;BME280;17930;48.592;8.868;2023-03-16T10:43:27;96853.75;;;17.84;61.37
6829;BME280;17930;48.592;8.868;2023-03-16T10:45:57;96840.25;;;18.60;59.78
6829;BME280;17930;48.592;8.868;2023-03-16T10:48:27;96838.63;;;18.96;59.06
6829;BME280;17930;48.592;8.868;2023-03-16T10:50:57;96829.50;;;19.66;58.98
6829;BME280;17930;48.592;8.868;2023-03-16T10:53:28;96826.97;;;20.38;55.19
6829;BME280;17930;48.592;8.868;2023-03-16T10:55:57;96830.72;;;20.37;55.39
6829;BME280;17930;48.592;8.868;2023-03-16T10:58:29;96827.88;;;20.30;55.18
6829;BME280;17930;48.592;8.868;2023-03-16T11:00:57;96816.94;;;21.18;55.30
6829;BME280;17930;48.592;8.868;2023-03-16T11:03:26;96833.34;;;20.01;51.23
6829;BME280;17930;48.592;8.868;2023-03-16T11:05:57;96823.25;;;19.51;52.52
6829;BME280;17930;48.592;8.868;2023-03-16T11:08:26;96819.38;;;19.16;54.55
6829;BME280;17930;48.592;8.868;2023-03-16T11:10:55;96824.06;;;19.31;51.75
6829;BME280;17930;48.592;8.868;2023-03-16T11:13:30;96816.97;;;19.87;51.34
6829;BME280;17930;48.592;8.868;2023-03-16T11:16:01;96809.66;;;20.40;50.63
6829;BME280;17930;48.592;8.868;2023-03-16T11:18:31;96812.41;;;20.79;48.85
6829;BME280;17930;48.592;8.868;2023-03-16T11:21:05;96815.44;;;19.86;48.93
6829;BME280;17930;48.592;8.868;2023-03-16T11:23:37;96812.19;;;20.25;49.63
6829;BME280;17930;48.592;8.868;2023-03-16T11:26:11;96809.50;;;20.60;48.40
6829;BME280;17930;48.592;8.868;2023-03-16T11:28:46;96805.69;;;20.58;49.72
6829;BME280;17930;48.592;8.868;2023-03-16T11:31:21;96798.31;;;21.03;48.68
6829;BME280;17930;48.592;8.868;2023-03-16T11:33:52;96799.19;;;21.61;46.99
6829;BME280;17930;48.592;8.868;2023-03-16T11:36:43;96798.69;;;21.44;47.37
6829;BME280;17930;48.592;8.868;2023-03-16T11:39:22;96800.38;;;20.10;47.91
6829;BME280;17930;48.592;8.868;2023-03-16T11:41:57;96794.41;;;20.13;47.30
6829;BME280;17930;48.592;8.868;2023-03-16T11:44:34;96795.03;;;20.82;46.48
6829;BME280;17930;48.592;8.868;2023-03-16T11:47:11;96797.38;;;20.59;46.10
6829;BME280;17930;48.592;8.868;2023-03-16T11:49:54;96792.94;;;20.87;44.60
6829;BME280;17930;48.592;8.868;2023-03-16T11:52:32;96787.00;;;20.43;45.18
6829;BME280;17930;48.592;8.868;2023-03-16T11:55:14;96776.25;;;20.75;45.65
6829;BME280;17930;48.592;8.868;2023-03-16T11:57:52;96780.59;;;20.08;45.53
6829;BME280;17930;48.592;8.868;2023-03-16T12:00:30;96776.66;;;21.28;45.06
6829;BME280;17930;48.592;8.868;2023-03-16T12:03:20;96769.59;;;22.20;43.66
6829;BME280;17930;48.592;8.868;2023-03-16T12:05:57;96761.88;;;22.46;44.39
6829;BME280;17930;48.592;8.868;2023-03-16T12:08:41;96766.31;;;22.58;41.91
6829;BME280;17930;48.592;8.868;2023-03-16T12:11:19;96750.81;;;21.83;44.48
6829;BME280;17930;48.592;8.868;2023-03-16T12:13:59;96759.22;;;21.85;43.73
6829;BME280;17930;48.592;8.868;2023-03-16T12:16:34;96751.59;;;21.83;43.87
6829;BME280;17930;48.592;8.868;2023-03-16T12:19:14;96760.44;;;21.45;43.87
6829;BME280;17930;48.592;8.868;2023-03-16T12:21:44;96759.44;;;21.22;42.86
6829;BME280;17930;48.592;8.868;2023-03-16T12:24:17;96741.06;;;20.27;44.97
6829;BME280;17930;48.592;8.868;2023-03-16T12:26:46;96749.44;;;19.81;45.93
6829;BME280;17930;48.592;8.868;2023-03-16T12:29:20;96736.47;;;18.71;48.05
6829;BME280;17930;48.592;8.868;2023-03-16T12:31:54;96747.13;;;19.24;44.93
6829;BME280;17930;48.592;8.868;2023-03-16T12:34:28;96747.59;;;20.17;45.07
6829;BME280;17930;48.592;8.868;2023-03-16T12:37:12;96743.72;;;20.39;43.51
6829;BME280;17930;48.592;8.868;2023-03-16T12:39:55;96738.47;;;21.60;43.31
6829;BME280;17930;48.592;8.868;2023-03-16T12:42:47;96733.09;;;20.62;43.14
6829;BME280;17930;48.592;8.868;2023-03-16T12:45:23;96727.56;;;18.96;44.75
6829;BME280;17930;48.592;8.868;2023-03-16T12:48:00;96720.09;;;19.18;46.93
6829;BME280;17930;48.592;8.868;2023-03-16T12:50:30;96726.53;;;19.41;45.15
6829;BME280;17930;48.592;8.868;2023-03-16T12:52:57;96725.91;;;18.92;45.04
6829;BME280;17930;48.592;8.868;2023-03-16T12:55:28;96713.25;;;18.36;45.98
6829;BME280;17930;48.592;8.868;2023-03-16T12:58:06;96724.31;;;17.72;47.33
6829;BME280;17930;48.592;8.868;2023-03-16T13:00:35;96721.63;;;17.44;47.95
6829;BME280;17930;48.592;8.868;2023-03-16T13:03:09;96712.38;;;18.52;48.58
6829;BME280;17930;48.592;8.868;2023-03-16T13:05:44;96725.44;;;20.10;44.52
6829;BME280;17930;48.592;8.868;2023-03-16T13:08:14;96726.78;;;21.06;43.49
6829;BME280;17930;48.592;8.868;2023-03-16T13:10:42;96723.66;;;21.89;42.52
6829;BME280;17930;48.592;8.868;2023-03-16T13:13:24;96730.53;;;23.08;40.24
6829;BME280;17930;48.592;8.868;2023-03-16T13:16:01;96727.28;;;22.99;38.73
6829;BME280;17930;48.592;8.868;2023-03-16T13:18:37;96712.31;;;22.23;40.09
6829;BME280;17930;48.592;8.868;2023-03-16T13:21:15;96698.81;;;21.82;39.88